Flight Track Log - Related Links

Times and Time Zones

All times are in EDT time to prevent confusion due to time zone crossing. See the N821LC flight status page for this flight to view local times or setup timezone preferences in your user account.

Time Position Orientation Groundspeed Altitude Reporting Facility
EDT Latitude Longitude Course Direction KTS MPH feet Rate Location/Type
Sat 09:32:38 PM 38.8158 -97.7244 281° West 208 239 5,000  Level Kansas City Center
Sat 09:33:39 PM 38.8164 -97.8108 270° West 261 300 7,200 2,607 Climbing Kansas City Center
Sat 09:34:40 PM 38.8117 -97.9142 267° West 287 330 10,300 2,852 Climbing Kansas City Center
Sat 09:35:41 PM 38.8061 -98.0317 267° West 327 376 13,000 2,852 Climbing Kansas City Center
Sat 09:36:42 PM 38.7997 -98.1603 266° West 359 413 16,100 3,098 Climbing Kansas City Center
Sat 09:37:00 PM 38.7411 -98.6438 266° West  Level FlightAware Approximate
Sat 09:37:43 PM 38.7933 -98.2947 267° West 376 433 19,300  Level Kansas City Center
Sat 09:38:44 PM 38.7881 -98.4289 267° West 378 435 22,400 1,820 Climbing Kansas City Center
Sat 09:39:45 PM 38.7819 -98.5681 267° West 394 453 23,000 1,024 Climbing Kansas City Center
Sat 09:40:47 PM 38.7739 -98.7183 266° West 422 486 24,500 1,902 Climbing Kansas City Center
Sat 09:41:48 PM 38.7667 -98.8672 266° West 421 484 26,900 2,115 Climbing Kansas City Center
Sat 09:42:49 PM 38.7567 -99.0475 266° West 425 489 28,800 1,426 Climbing Kansas City Center
Sat 09:43:50 PM 38.7492 -99.2028 267° West 438 504 29,800 984 Climbing Kansas City Center
Sat 09:44:51 PM 38.7403 -99.3614 266° West 445 512 30,800 1,131 Climbing Kansas City Center
Sat 09:45:52 PM 38.7308 -99.5206 266° West 449 517 32,100 1,377 Climbing Kansas City Center
Sat 09:46:53 PM 38.7225 -99.6686 266° West 441 507 33,600 1,525 Climbing Kansas City Center
Sat 09:47:54 PM 38.7128 -99.8381 266° West 431 496 35,200 1,230 Climbing Kansas City Center
Sat 09:48:55 PM 38.7047 -99.9811 266° West 425 489 36,100 934 Climbing Kansas City Center
Sat 09:49:56 PM 38.6942 -100.1486 265° West 425 489 37,100 989 Climbing Kansas City Center
Sat 09:50:26 PM 38.6878 -100.2172 263° West 423 487 37,600 978 Climbing Denver Center
Sat 09:51:28 PM 38.6797 -100.3586 266° West 419 482 38,600 1,024 Climbing Denver Center
Sat 09:52:29 PM 38.6694 -100.5203 265° West 413 475 39,700 787 Climbing Denver Center
Sat 09:53:30 PM 38.6617 -100.6336 265° West 406 467 40,200 634 Climbing Denver Center
Sat 09:54:32 PM 38.6506 -100.7953 265° West 410 472 41,000 780 Climbing Denver Center
Sat 09:55:33 PM 38.6392 -100.9564 265° West 408 470 41,800 634 Climbing Denver Center
Sat 09:56:35 PM 38.6300 -101.0931 265° West 406 467 42,300 488 Climbing Denver Center
Sat 09:57:36 PM 38.6183 -101.2547 265° West 410 472 42,800 341 Climbing Denver Center
Sat 09:58:38 PM 38.6083 -101.3931 265° West 411 473 43,000 98 Climbing Denver Center
Sat 09:59:39 PM 38.5964 -101.5581 265° West 420 483 43,000  Level Denver Center
Sat 10:00:40 PM 38.5856 -101.7008 264° West 425 489 43,000  Level Denver Center
Sat 10:01:42 PM 38.5747 -101.8458 265° West 428 493 43,000  Level Denver Center
Sat 10:02:43 PM 38.5614 -102.0150 264° West 431 496 43,000  Level Denver Center
Sat 10:03:44 PM 38.5500 -102.1606 264° West 431 496 43,000  Level Denver Center
Sat 10:04:46 PM 38.5369 -102.3300 264° West 431 496 43,000  Level Denver Center
Sat 10:05:47 PM 38.5231 -102.4764 263° West 435 501 43,000  Level Denver Center
Sat 10:06:48 PM 38.5122 -102.6228 265° West 434 499 43,000  Level Denver Center
Sat 10:07:50 PM 38.4997 -102.7936 265° West 434 499 43,000  Level Denver Center
Sat 10:08:51 PM 38.4853 -102.9411 263° West 436 502 43,000  Level Denver Center
Sat 10:09:53 PM 38.4692 -103.1142 263° West 439 505 43,000  Level Denver Center
Sat 10:10:54 PM 38.4569 -103.2617 264° West 439 505 43,000  Level Denver Center
Sat 10:11:55 PM 38.4433 -103.4086 263° West 438 504 43,000  Level Denver Center
Sat 10:13:09 PM 38.4275 -103.5783 263° West 437 503 43,000  Level Denver Center
Sat 10:14:10 PM 38.4092 -103.7764 263° West 441 507 43,000  Level Denver Center
Sat 10:15:11 PM 38.3953 -103.9239 263° West 440 506 43,000  Level Denver Center
Sat 10:16:13 PM 38.3819 -104.0728 264° West 442 509 43,000  Level Denver Center
Sat 10:17:14 PM 38.3642 -104.2522 263° West 451 519 43,000  Level Denver Center
Sat 10:18:15 PM 38.3492 -104.4094 263° West 449 517 43,000  Level Denver Center
Sat 10:19:17 PM 38.3319 -104.5736 262° West 446 513 43,000  Level Denver Center
Sat 10:20:18 PM 38.3164 -104.7228 262° West 445 512 43,000  Level Denver Center
Sat 10:21:19 PM 38.3019 -104.8703 263° West 442 509 43,000  Level Denver Center
Sat 10:22:21 PM 38.2839 -105.0411 262° West 440 506 43,000  Level Denver Center
Sat 10:23:22 PM 38.2686 -105.1878 262° West 439 505 43,000  Level Denver Center
Sat 10:24:23 PM 38.2492 -105.3581 262° West 437 503 43,000  Level Denver Center
Sat 10:25:24 PM 38.2336 -105.5044 262° West 438 504 43,000  Level Denver Center
Sat 10:26:26 PM 38.2181 -105.6519 262° West 438 504 43,000  Level Denver Center
Sat 10:27:27 PM 38.1989 -105.8231 262° West 440 506 43,000  Level Denver Center
Sat 10:28:28 PM 38.1814 -105.9708 261° West 442 509 43,000  Level Denver Center
Sat 10:29:29 PM 38.1622 -106.1422 262° West 442 509 43,000  Level Denver Center
Sat 10:30:31 PM 38.1458 -106.2908 262° West 442 509 43,000  Level Denver Center
Sat 10:31:32 PM 38.1281 -106.4433 262° West 435 501 43,000  Level Denver Center
Sat 10:32:33 PM 38.1078 -106.6136 261° West 443 510 43,000  Level Denver Center
Sat 10:33:35 PM 38.0900 -106.7600 261° West 438 504 43,000  Level Denver Center
Sat 10:34:36 PM 38.0725 -106.9075 261° West 442 509 43,000  Level Denver Center
Sat 10:35:37 PM 38.0514 -107.0789 261° West 440 506 43,000  Level Denver Center
Sat 10:36:38 PM 38.0339 -107.2217 261° West 438 504 43,000  Level Denver Center
Sat 10:37:40 PM 38.0125 -107.3942 261° West 444 511 43,000  Level Denver Center
Sat 10:38:41 PM 37.9939 -107.5408 261° West 442 509 43,000  Level Denver Center
Sat 10:39:42 PM 37.9758 -107.6892 261° West 445 512 43,000  Level Denver Center
Sat 10:40:44 PM 37.9525 -107.8614 260° West 446 513 43,000  Level Denver Center
Sat 10:41:45 PM 37.9333 -108.0092 261° West 445 512 43,000  Level Denver Center
Sat 10:42:46 PM 37.9103 -108.1822 260° West 444 511 43,000  Level Denver Center
Sat 10:43:47 PM 37.8908 -108.3308 261° West 448 516 43,000  Level Denver Center
Sat 10:44:49 PM 37.8708 -108.4792 260° West 448 516 43,000  Level Denver Center
Sat 10:45:50 PM 37.8469 -108.6525 260° West 450 518 43,000  Level Denver Center
Sat 10:46:52 PM 37.8275 -108.8008 261° West 448 516 43,000  Level Denver Center
Sat 10:47:53 PM 37.8017 -108.9681 259° West 437 503 43,000  Level Denver Center
Sat 10:48:54 PM 37.7639 -109.1111 252° West 447 514 43,000  Level Denver Center
Sat 10:49:56 PM 37.7292 -109.2531 253° West 446 513 43,000  Level Denver Center
Sat 10:50:57 PM 37.6875 -109.4156 252° West 440 506 43,000  Level Denver Center
Sat 10:51:58 PM 37.6531 -109.5561 253° West 438 504 43,000  Level Denver Center
Sat 10:53:00 PM 37.6111 -109.7192 252° West 437 503 43,000  Level Denver Center
Sat 10:54:01 PM 37.5761 -109.8603 253° West 439 505 43,000  Level Denver Center
Sat 10:55:14 PM 37.5336 -110.0258 252° West 444 511 43,000  Level Denver Center
Sat 10:56:16 PM 37.4872 -110.2019 252° West 438 504 43,000 -293 Level Denver Center
Sat 10:57:17 PM 37.4492 -110.3494 252° West 444 511 42,400 -780 Descending Denver Center
Sat 10:58:19 PM 37.4114 -110.4983 252° West 446 513 41,400 -976 Descending Denver Center
Sat 10:59:20 PM 37.3736 -110.6456 252° West 443 510 40,400 -968 Descending Denver Center
Sat 11:00:23 PM 37.3328 -110.7931 251° West 446 513 39,400 -968 Descending Denver Center
Sat 11:01:24 PM 37.2933 -110.9436 252° West 454 522 38,400 -976 Descending Denver Center
Sat 11:02:26 PM 37.2522 -111.0947 251° West 457 526 37,400 -1,220 Descending Denver Center
Sat 11:03:27 PM 37.2122 -111.2453 252° West 455 524 35,900 -1,623 Descending Denver Center
Sat 11:04:28 PM 37.1653 -111.4236 252° West 449 517 34,100 -1,672 Descending Denver Center
Sat 11:05:29 PM 37.1258 -111.5728 252° West 450 518 32,500 -1,277 Descending Denver Center
Sat 11:06:02 PM 37.1097 -111.6331 251° West 449 517 32,100 -319 Descending Los Angeles Center
Sat 11:07:03 PM 37.0664 -111.7867 251° West 460 529 32,000 -49 Descending Los Angeles Center
Sat 11:08:05 PM 37.0150 -111.9739 251° West 470 541 32,000  Level Los Angeles Center
Sat 11:09:06 PM 36.9692 -112.1317 250° West 479 551 32,000  Level Los Angeles Center
Sat 11:10:08 PM 36.9272 -112.2828 251° West 463 533 32,000  Level Los Angeles Center
Sat 11:11:09 PM 36.8872 -112.4306 251° West 451 519 32,000  Level Los Angeles Center
Sat 11:12:10 PM 36.8764 -112.5844 265° West 444 511 32,000  Level Los Angeles Center
Sat 11:13:12 PM 36.8661 -112.7403 265° West 447 514 32,000  Level Los Angeles Center
Sat 11:14:13 PM 36.8567 -112.9017 266° West 461 531 32,000  Level Los Angeles Center
Sat 11:15:15 PM 36.8481 -113.0653 266° West 468 539 32,000 -146 Level Los Angeles Center
Sat 11:16:16 PM 36.8372 -113.2306 265° West 475 547 31,700 -1,033 Descending Los Angeles Center
Sat 11:17:17 PM 36.8275 -113.3942 266° West 472 543 29,900 -2,098 Descending Los Angeles Center
Sat 11:18:19 PM 36.8086 -113.5581 262° West 477 549 27,400 -2,732 Descending Los Angeles Center
Sat 11:19:20 PM 36.7344 -113.7344 242° Southwest 477 549 24,300 -2,732 Descending Los Angeles Center
Sat 11:20:22 PM 36.6700 -113.8700 239° Southwest 461 531 21,800 -2,439 Descending Los Angeles Center
Sat 11:21:23 PM 36.6161 -113.9908 241° Southwest 414 476 19,300 -2,607 Descending Los Angeles Center
Sat 11:22:24 PM 36.5611 -114.1114 240° Southwest 404 465 16,500 -2,634 Descending Los Angeles Center
Sat 11:23:26 PM 36.5086 -114.2272 241° Southwest 382 440 13,900 -2,538 Descending Los Angeles Center
Sat 11:24:08 PM 36.4717 -114.3142 242° Southwest 375 432 12,100 -1,046 Descending Los Angeles Center
Sat 11:25:15 PM 36.4236 -114.4192 240° Southwest 325 374 12,000 -141 Descending Los Angeles Center
Sat 11:26:16 PM 36.3636 -114.4903 224° Southwest 307 353 11,800 -879 Descending Los Angeles Center
Sat 11:27:11 PM 36.2889 -114.5131 194° South 301 346 10,300 -1,606 Descending Los Angeles Center
Sat 11:28:23 PM 36.1992 -114.5381 193° South 272 313 8,400 -1,038 Descending Los Angeles Center
Sat 11:29:24 PM 36.1342 -114.5575 194° South 244 281 8,000 -198 Descending Los Angeles Center
Sat 11:30:24 PM 36.0822 -114.5964 211° Southwest 235 270 8,000  Level Los Angeles Center
Sat 11:31:07 PM 36.0753 -114.6519 261° West 236 272 8,000  Level Los Angeles Center
Sat 11:32:14 PM 36.0722 -114.7461 268° West 240 276 8,000 -563 Level Los Angeles Center
Sat 11:33:15 PM 36.0739 -114.8228 272° West 222 255 6,800 -992 Descending Los Angeles Center
Sat 11:34:15 PM 36.0736 -114.8897 270° West 190 219 6,000 -1,087 Descending Los Angeles Center
Sat 11:35:22 PM 36.0747 -114.9636 271° West 187 215 4,500 -973 Descending Los Angeles Center
Sat 11:36:43 PM 36.0736 -115.0281 269° West 172 198 3,600 -738 Descending Los Angeles Center
Sat 11:37:24 PM 36.0725 -115.0628 268° West 136 157 3,000 -706 Descending Los Angeles Center
Sat 11:38:25 PM 36.0733 -115.1053 271° West 128 147 2,400 -590 Descending Los Angeles Center
Sat 11:40:00 PM 36.0667 -115.1500 219° Southwest  Level FlightAware Approximate
Sat 11:47:00 PM 36.0801 -115.1523 219° Southwest  Level Estimated

Login

Don't have an account? Register now (free) for customized features, flight alerts, and more!